Aviation Digital Data Service (ADDS)

Output produced by METARs form (1120 UTC 17 June 2019)
found at http://www.aviationweather.gov/metar/data/
 
Forecast for: DFFD (OUAGADOUGOU (MIL, BF)
Text: TAF DFFD 170500Z 1706/1812 18010KT 9999 FEW020
Forecast period: 0600 UTC 17 June 2019 to 1200 UTC 18 June 2019
Forecast type: FROM: standard forecast or significant change
Winds: from the S (180 degrees) at 12 MPH (10 knots; 5.1 m/s)
Visibility: 6 or more miles 10+ km)
Ceiling: at least 12,000 feet AGL
Clouds: few clouds at 2000 feet AGL
Weather: no significant weather forecast for this period
Text: TEMPO 1706/1713 10025G40KT 2500 BLSA SQ TSRA SCT020 SCT033CB
Forecast period: 0600 to 1300 UTC 17 June 2019
Forecast type: TEMPORARY: The following changes expected for less than half the time period
Winds: from the E (100 degrees) at 29 MPH (25 knots; 12.9 m/s)
gusting to 46 MPH (40 knots; 20.6 m/s)
Visibility: 1.55 miles (2.49 km)
Ceiling: at least 12,000 feet AGL
Clouds: scattered clouds at 2000 feet AGL
scattered clouds at 3300 feet AGL
Weather: BLSA SQ TSRA  (blowing sand, squal, rain associated with thunderstorm(s))
Text: TEMPO 1718/1802 TS FEW026 FEW033CB
Forecast period: 1800 UTC 17 June 2019 to 0200 UTC 18 June 2019
Forecast type: TEMPORARY: The following changes expected for less than half the time period
Visibility: missing
Ceiling: at least 12,000 feet AGL
Clouds: few clouds at 2600 feet AGL
few clouds at 3300 feet AGL
Weather: TS  (thunderstorm)